Hlavní strana
METAR-TAF:

METAR-TAF

Letiště :

Denver International Airport

Denver, Colorado, Spojené státy americké

zeměpisná šířka: 39-49-58N, zeměpisná délka: 104-39-27W, výška: 1655 m

Aktuální stav počasí

Zpráva byla vytvořena před 1 hodinou a 2 minutami, v 21:55 UTC
Východojihovýchodní vítr 9 kt
Teplota 15°C
Vlhkost vzduchu 25%
Tlak 1009 hPa
Viditelnost: 16.1 km
Skoro jasno ve výšce 11000 ft
Polojasno ve výšce 15000 ft

METAR: KDEN 042155Z 12009KT 10SM FEW110 SCT150 15/M05 A2981 RMK AO2 T01501050

Čas: 16:57 (22:57 UTC)

Předpověď počasí

Zpráva byla vytvořena před 1 hodinou a 54 minutami, v 21:03 UTC
Předpověď platná od 04 v 21 UTC do 05 v 24 UTC
Jihovýchodní vítr 6 kt
Viditelnost: 10 km
Polojasno ve výšce 9000 ft
Oblačno až skoro zataženo ve výšce 14000 ft
Od 05 v 0500 UTC
Jihojihozápadní vítr 12 kt
Viditelnost: 10 km
Polojasno ve výšce 12000 ft
Oblačno až skoro zataženo ve výšce 22000 ft

TAF: KDEN 042103Z 0421/0524 14006KT P6SM SCT090 BKN140 FM050500 21012KT P6SM SCT120 BKN220

Stav a předpovědi počasí z více než 4 000 letišť (zprávy METAR a TAF).

Červené a žluté tečky na mapě představují dostupné meteorologické stanice.

Když kurzor umístíte na tečku, zobrazí se název stanice.

Pak kliknutím zobrazíte stav a předpověď počasí.

Chcete-li změnit mapu, kliknutím na zelené tlačítko se znaménkem +mapu přiblížíte, kliknutím na zelené tlačítko se znaménkem – mapu oddálíte a kliknutím na zelené šipky přejdete na sousední mapy.


METAR-TAF: